INFORMAÇÕES METEOROLÓGICAS
METAR FOR SBIL
ADDS - METARS form results

(1406 UTC 20 April 2018)
Data provider http://aviationweather.gov/adds/metars/
 
Forecast for: SBIL (ILHEUS AIRPORT , BR)
Text: TAF SBIL 201000Z 2012/2024 18011KT 8000 SCT015 SCT025 TX29/2015Z TN25/2022Z RMK PEU
Forecast period: 1200 UTC 20 April 2018 to 0000 UTC 21 April 2018
Forecast type: FROM: standard forecast or significant change
Winds: from the S (180 degrees) at 13 MPH (11 knots; 5.7 m/s)
Visibility: 5 miles (8 km)
Clouds: scattered clouds at 1500 feet AGL
scattered clouds at 2500 feet AGL
Weather: no significant weather forecast for this period

 MAPA DO AEROPORTO

 INFORMAÇÕES DA PISTA
Pista 11 Tamanho da pista 5174 ft Largura da pista 148 ft
Elevação da pista 0 ft Ranhura da pista 0 ft Proa da pista 0
Pista 29 Tamanho da pista 5174 ft Largura da pista 148 ft
Elevação da pista 0 ft Ranhura da pista 0 ft Proa da pista 0

 FREQUÊNCIAS DO AEROPORTO
Tipo APP Nome APP Frequência 120.1 MHZ

 AUXÍLIOS DE NAVEGAÇÃO PRÓXIMOS AO AEROPORTO
Tipo NDB Nome Ilheus Frequência 305 KHZ



Powered by Mercosul Lnhas Aereas